sensor_id;sensor_type;location;lat;lon;timestamp;temperature;humidity
67196;DHT22;54122;53.538;49.366;2023-07-02T00:01:47;16.80;90.50
67196;DHT22;54122;53.538;49.366;2023-07-02T00:04:14;16.70;90.70
67196;DHT22;54122;53.538;49.366;2023-07-02T00:06:43;16.60;91.00
67196;DHT22;54122;53.538;49.366;2023-07-02T00:09:10;16.50;91.50
67196;DHT22;54122;53.538;49.366;2023-07-02T00:11:41;16.40;91.90
67196;DHT22;54122;53.538;49.366;2023-07-02T00:14:09;16.50;92.10
67196;DHT22;54122;53.538;49.366;2023-07-02T00:16:39;16.50;92.30
67196;DHT22;54122;53.538;49.366;2023-07-02T00:19:06;16.50;92.20
67196;DHT22;54122;53.538;49.366;2023-07-02T00:21:32;16.50;92.20
67196;DHT22;54122;53.538;49.366;2023-07-02T00:24:00;16.40;92.10
67196;DHT22;54122;53.538;49.366;2023-07-02T00:26:27;16.40;92.20
67196;DHT22;54122;53.538;49.366;2023-07-02T00:28:55;16.40;92.00
67196;DHT22;54122;53.538;49.366;2023-07-02T00:31:23;16.40;91.80
67196;DHT22;54122;53.538;49.366;2023-07-02T00:33:50;16.40;91.70
67196;DHT22;54122;53.538;49.366;2023-07-02T00:36:16;16.40;91.70
67196;DHT22;54122;53.538;49.366;2023-07-02T00:38:45;16.30;91.70
67196;DHT22;54122;53.538;49.366;2023-07-02T00:41:12;16.30;91.70
67196;DHT22;54122;53.538;49.366;2023-07-02T00:43:39;16.30;91.70
67196;DHT22;54122;53.538;49.366;2023-07-02T00:46:19;16.30;91.80
67196;DHT22;54122;53.538;49.366;2023-07-02T00:48:51;16.40;91.70
67196;DHT22;54122;53.538;49.366;2023-07-02T00:51:23;16.40;91.80
67196;DHT22;54122;53.538;49.366;2023-07-02T00:53:51;16.40;91.80
67196;DHT22;54122;53.538;49.366;2023-07-02T00:56:18;16.40;91.80
67196;DHT22;54122;53.538;49.366;2023-07-02T00:58:49;16.50;91.70
67196;DHT22;54122;53.538;49.366;2023-07-02T01:01:16;16.60;91.60
67196;DHT22;54122;53.538;49.366;2023-07-02T01:06:32;16.70;91.20
67196;DHT22;54122;53.538;49.366;2023-07-02T01:09:00;16.70;91.20
67196;DHT22;54122;53.538;49.366;2023-07-02T01:11:44;16.80;90.80
67196;DHT22;54122;53.538;49.366;2023-07-02T01:14:26;16.90;90.60
67196;DHT22;54122;53.538;49.366;2023-07-02T01:16:55;16.90;90.50
67196;DHT22;54122;53.538;49.366;2023-07-02T01:19:45;16.90;90.50
67196;DHT22;54122;53.538;49.366;2023-07-02T01:22:22;17.00;90.60
67196;DHT22;54122;53.538;49.366;2023-07-02T01:24:50;17.10;90.80
67196;DHT22;54122;53.538;49.366;2023-07-02T01:27:17;17.10;90.80
67196;DHT22;54122;53.538;49.366;2023-07-02T01:29:43;17.10;90.70
67196;DHT22;54122;53.538;49.366;2023-07-02T01:32:13;17.20;90.50
67196;DHT22;54122;53.538;49.366;2023-07-02T01:34:39;17.20;90.30
67196;DHT22;54122;53.538;49.366;2023-07-02T01:37:06;17.20;90.10
67196;DHT22;54122;53.538;49.366;2023-07-02T01:39:32;17.20;90.10
67196;DHT22;54122;53.538;49.366;2023-07-02T01:42:16;17.20;90.10
67196;DHT22;54122;53.538;49.366;2023-07-02T01:44:47;17.20;90.00
67196;DHT22;54122;53.538;49.366;2023-07-02T01:47:14;17.20;89.80
67196;DHT22;54122;53.538;49.366;2023-07-02T01:49:42;17.20;89.50
67196;DHT22;54122;53.538;49.366;2023-07-02T01:52:09;17.30;89.20
67196;DHT22;54122;53.538;49.366;2023-07-02T01:54:36;17.30;88.80
67196;DHT22;54122;53.538;49.366;2023-07-02T01:57:03;17.40;88.60
67196;DHT22;54122;53.538;49.366;2023-07-02T01:59:30;17.60;88.20
67196;DHT22;54122;53.538;49.366;2023-07-02T02:01:56;17.90;88.00
67196;DHT22;54122;53.538;49.366;2023-07-02T02:04:23;18.00;86.00
67196;DHT22;54122;53.538;49.366;2023-07-02T02:06:49;18.10;85.40
67196;DHT22;54122;53.538;49.366;2023-07-02T02:09:16;18.20;85.30
67196;DHT22;54122;53.538;49.366;2023-07-02T02:11:44;18.60;84.90
67196;DHT22;54122;53.538;49.366;2023-07-02T02:14:11;19.40;82.30
67196;DHT22;54122;53.538;49.366;2023-07-02T02:16:38;20.30;78.50
67196;DHT22;54122;53.538;49.366;2023-07-02T02:19:05;21.10;75.30
67196;DHT22;54122;53.538;49.366;2023-07-02T02:21:31;21.30;73.60
67196;DHT22;54122;53.538;49.366;2023-07-02T02:23:58;22.30;72.00
67196;DHT22;54122;53.538;49.366;2023-07-02T02:26:24;23.30;67.50
67196;DHT22;54122;53.538;49.366;2023-07-02T02:28:53;23.70;64.80
67196;DHT22;54122;53.538;49.366;2023-07-02T02:31:20;23.30;64.70
67196;DHT22;54122;53.538;49.366;2023-07-02T02:33:48;23.80;63.90
67196;DHT22;54122;53.538;49.366;2023-07-02T02:36:14;24.50;61.60
67196;DHT22;54122;53.538;49.366;2023-07-02T02:38:41;25.30;59.10
67196;DHT22;54122;53.538;49.366;2023-07-02T02:41:08;26.10;54.90
67196;DHT22;54122;53.538;49.366;2023-07-02T02:43:34;25.90;55.00
67196;DHT22;54122;53.538;49.366;2023-07-02T02:46:01;25.40;54.30
67196;DHT22;54122;53.538;49.366;2023-07-02T02:48:27;25.10;55.20
67196;DHT22;54122;53.538;49.366;2023-07-02T02:50:54;25.20;55.20
67196;DHT22;54122;53.538;49.366;2023-07-02T02:53:21;25.80;54.40
67196;DHT22;54122;53.538;49.366;2023-07-02T02:55:47;26.70;51.10
67196;DHT22;54122;53.538;49.366;2023-07-02T02:58:13;28.10;46.70
67196;DHT22;54122;53.538;49.366;2023-07-02T03:00:40;29.40;43.80
67196;DHT22;54122;53.538;49.366;2023-07-02T03:03:11;30.70;40.10
67196;DHT22;54122;53.538;49.366;2023-07-02T03:05:37;31.50;37.20
67196;DHT22;54122;53.538;49.366;2023-07-02T03:08:04;31.00;36.90
67196;DHT22;54122;53.538;49.366;2023-07-02T03:10:30;30.00;38.30
67196;DHT22;54122;53.538;49.366;2023-07-02T03:12:57;28.80;40.70
67196;DHT22;54122;53.538;49.366;2023-07-02T03:15:23;27.70;42.90
67196;DHT22;54122;53.538;49.366;2023-07-02T03:17:49;26.90;44.60
67196;DHT22;54122;53.538;49.366;2023-07-02T03:20:16;26.70;45.70
67196;DHT22;54122;53.538;49.366;2023-07-02T03:22:43;27.10;45.00
67196;DHT22;54122;53.538;49.366;2023-07-02T03:25:09;28.40;42.80
67196;DHT22;54122;53.538;49.366;2023-07-02T03:27:35;30.20;39.10
67196;DHT22;54122;53.538;49.366;2023-07-02T03:30:02;31.80;36.00
67196;DHT22;54122;53.538;49.366;2023-07-02T03:32:29;32.80;33.60
67196;DHT22;54122;53.538;49.366;2023-07-02T03:34:56;33.10;32.30
67196;DHT22;54122;53.538;49.366;2023-07-02T03:37:22;33.40;31.90
67196;DHT22;54122;53.538;49.366;2023-07-02T03:39:49;33.70;31.60
67196;DHT22;54122;53.538;49.366;2023-07-02T03:42:16;33.30;31.60
67196;DHT22;54122;53.538;49.366;2023-07-02T03:44:45;32.70;32.20
67196;DHT22;54122;53.538;49.366;2023-07-02T03:47:12;32.70;32.70
67196;DHT22;54122;53.538;49.366;2023-07-02T03:49:42;33.00;32.40
67196;DHT22;54122;53.538;49.366;2023-07-02T03:52:08;33.80;31.20
67196;DHT22;54122;53.538;49.366;2023-07-02T03:54:35;34.70;30.00
67196;DHT22;54122;53.538;49.366;2023-07-02T03:57:01;35.70;28.80
67196;DHT22;54122;53.538;49.366;2023-07-02T03:59:28;35.90;28.00
67196;DHT22;54122;53.538;49.366;2023-07-02T04:01:54;36.40;27.40
67196;DHT22;54122;53.538;49.366;2023-07-02T04:04:21;36.60;26.70
67196;DHT22;54122;53.538;49.366;2023-07-02T04:06:47;36.00;27.60
67196;DHT22;54122;53.538;49.366;2023-07-02T04:09:14;35.70;27.10
67196;DHT22;54122;53.538;49.366;2023-07-02T04:11:40;34.60;27.80
67196;DHT22;54122;53.538;49.366;2023-07-02T04:14:06;32.90;29.80
67196;DHT22;54122;53.538;49.366;2023-07-02T04:16:33;31.20;32.50
67196;DHT22;54122;53.538;49.366;2023-07-02T04:18:59;30.00;34.80
67196;DHT22;54122;53.538;49.366;2023-07-02T04:21:26;29.00;36.80
67196;DHT22;54122;53.538;49.366;2023-07-02T04:23:52;28.20;38.60
67196;DHT22;54122;53.538;49.366;2023-07-02T04:26:19;27.70;40.00
67196;DHT22;54122;53.538;49.366;2023-07-02T04:28:45;27.40;40.50
67196;DHT22;54122;53.538;49.366;2023-07-02T04:31:11;27.10;40.90
67196;DHT22;54122;53.538;49.366;2023-07-02T04:33:39;26.90;41.50
67196;DHT22;54122;53.538;49.366;2023-07-02T04:36:06;26.90;41.70
67196;DHT22;54122;53.538;49.366;2023-07-02T04:38:32;27.10;41.60
67196;DHT22;54122;53.538;49.366;2023-07-02T04:40:59;27.70;41.30
67196;DHT22;54122;53.538;49.366;2023-07-02T04:43:27;28.60;39.50
67196;DHT22;54122;53.538;49.366;2023-07-02T04:45:57;29.10;38.20
67196;DHT22;54122;53.538;49.366;2023-07-02T04:48:26;30.10;37.00
67196;DHT22;54122;53.538;49.366;2023-07-02T04:50:53;30.80;35.80
67196;DHT22;54122;53.538;49.366;2023-07-02T04:53:19;31.00;34.50
67196;DHT22;54122;53.538;49.366;2023-07-02T04:55:45;30.70;34.20
67196;DHT22;54122;53.538;49.366;2023-07-02T04:58:11;30.10;35.00
67196;DHT22;54122;53.538;49.366;2023-07-02T05:00:37;29.60;36.40
67196;DHT22;54122;53.538;49.366;2023-07-02T05:03:04;28.90;37.30
67196;DHT22;54122;53.538;49.366;2023-07-02T05:05:30;28.60;38.70
67196;DHT22;54122;53.538;49.366;2023-07-02T05:07:56;28.60;38.70
67196;DHT22;54122;53.538;49.366;2023-07-02T05:10:22;28.70;38.60
67196;DHT22;54122;53.538;49.366;2023-07-02T05:12:49;29.20;38.00
67196;DHT22;54122;53.538;49.366;2023-07-02T05:15:15;29.60;37.10
67196;DHT22;54122;53.538;49.366;2023-07-02T05:17:41;29.70;37.00
67196;DHT22;54122;53.538;49.366;2023-07-02T05:20:08;29.80;36.60
67196;DHT22;54122;53.538;49.366;2023-07-02T05:22:34;29.50;36.20
67196;DHT22;54122;53.538;49.366;2023-07-02T05:25:00;29.30;37.30
67196;DHT22;54122;53.538;49.366;2023-07-02T05:27:27;29.60;36.40
67196;DHT22;54122;53.538;49.366;2023-07-02T05:29:53;29.50;36.30
67196;DHT22;54122;53.538;49.366;2023-07-02T05:32:19;30.70;35.10
67196;DHT22;54122;53.538;49.366;2023-07-02T05:34:45;31.70;33.20
67196;DHT22;54122;53.538;49.366;2023-07-02T05:37:11;32.20;32.40
67196;DHT22;54122;53.538;49.366;2023-07-02T05:39:37;32.00;32.60
67196;DHT22;54122;53.538;49.366;2023-07-02T05:42:04;31.40;33.50
67196;DHT22;54122;53.538;49.366;2023-07-02T05:44:30;30.60;35.00
67196;DHT22;54122;53.538;49.366;2023-07-02T05:46:56;29.90;36.20
67196;DHT22;54122;53.538;49.366;2023-07-02T05:49:23;29.70;36.50
67196;DHT22;54122;53.538;49.366;2023-07-02T05:51:49;29.20;37.20
67196;DHT22;54122;53.538;49.366;2023-07-02T05:54:15;29.20;37.50
67196;DHT22;54122;53.538;49.366;2023-07-02T05:56:41;29.40;37.00
67196;DHT22;54122;53.538;49.366;2023-07-02T05:59:09;29.40;37.40
67196;DHT22;54122;53.538;49.366;2023-07-02T06:01:36;29.30;37.30
67196;DHT22;54122;53.538;49.366;2023-07-02T06:04:02;29.50;37.60
67196;DHT22;54122;53.538;49.366;2023-07-02T06:06:29;29.90;36.80
67196;DHT22;54122;53.538;49.366;2023-07-02T06:08:55;29.90;36.60
67196;DHT22;54122;53.538;49.366;2023-07-02T06:11:21;29.50;37.50
67196;DHT22;54122;53.538;49.366;2023-07-02T06:13:47;29.30;38.00
67196;DHT22;54122;53.538;49.366;2023-07-02T06:16:13;28.80;38.00
67196;DHT22;54122;53.538;49.366;2023-07-02T06:18:40;28.40;39.00
67196;DHT22;54122;53.538;49.366;2023-07-02T06:21:07;29.20;38.30
67196;DHT22;54122;53.538;49.366;2023-07-02T06:23:43;30.80;34.80
67196;DHT22;54122;53.538;49.366;2023-07-02T06:26:09;32.60;31.70
67196;DHT22;54122;53.538;49.366;2023-07-02T06:28:38;32.90;30.90
67196;DHT22;54122;53.538;49.366;2023-07-02T06:31:04;32.80;30.80
67196;DHT22;54122;53.538;49.366;2023-07-02T06:33:30;32.30;31.50
67196;DHT22;54122;53.538;49.366;2023-07-02T06:35:57;32.60;30.80
67196;DHT22;54122;53.538;49.366;2023-07-02T06:38:23;32.80;30.60
67196;DHT22;54122;53.538;49.366;2023-07-02T06:40:49;33.20;29.60
67196;DHT22;54122;53.538;49.366;2023-07-02T06:43:15;33.80;29.50
67196;DHT22;54122;53.538;49.366;2023-07-02T06:45:41;35.20;27.70
67196;DHT22;54122;53.538;49.366;2023-07-02T06:48:07;36.20;26.40
67196;DHT22;54122;53.538;49.366;2023-07-02T06:50:34;36.80;25.70
67196;DHT22;54122;53.538;49.366;2023-07-02T06:53:00;36.90;24.80
67196;DHT22;54122;53.538;49.366;2023-07-02T06:55:27;36.70;25.30
67196;DHT22;54122;53.538;49.366;2023-07-02T06:57:53;36.40;25.40
67196;DHT22;54122;53.538;49.366;2023-07-02T07:00:20;35.40;25.40
67196;DHT22;54122;53.538;49.366;2023-07-02T07:02:46;34.00;27.10
67196;DHT22;54122;53.538;49.366;2023-07-02T07:05:13;33.10;28.80
67196;DHT22;54122;53.538;49.366;2023-07-02T07:07:39;32.50;29.40
67196;DHT22;54122;53.538;49.366;2023-07-02T07:10:06;33.40;28.90
67196;DHT22;54122;53.538;49.366;2023-07-02T07:12:33;34.90;26.70
67196;DHT22;54122;53.538;49.366;2023-07-02T07:15:03;35.50;25.80
67196;DHT22;54122;53.538;49.366;2023-07-02T07:17:30;35.90;25.50
67196;DHT22;54122;53.538;49.366;2023-07-02T07:19:56;35.50;25.80
67196;DHT22;54122;53.538;49.366;2023-07-02T07:22:23;35.30;26.00
67196;DHT22;54122;53.538;49.366;2023-07-02T07:24:49;35.10;26.50
67196;DHT22;54122;53.538;49.366;2023-07-02T07:27:16;35.10;26.10
67196;DHT22;54122;53.538;49.366;2023-07-02T07:29:42;34.70;26.00
67196;DHT22;54122;53.538;49.366;2023-07-02T07:32:09;34.50;25.90
67196;DHT22;54122;53.538;49.366;2023-07-02T07:34:35;34.70;26.20
67196;DHT22;54122;53.538;49.366;2023-07-02T07:37:04;35.40;26.00
67196;DHT22;54122;53.538;49.366;2023-07-02T07:39:31;36.30;25.20
67196;DHT22;54122;53.538;49.366;2023-07-02T07:41:58;36.80;24.50
67196;DHT22;54122;53.538;49.366;2023-07-02T07:44:25;37.10;25.10
67196;DHT22;54122;53.538;49.366;2023-07-02T07:46:55;36.00;24.70
67196;DHT22;54122;53.538;49.366;2023-07-02T07:49:22;34.40;26.60
67196;DHT22;54122;53.538;49.366;2023-07-02T07:51:49;32.90;28.80
67196;DHT22;54122;53.538;49.366;2023-07-02T07:54:15;31.10;31.30
67196;DHT22;54122;53.538;49.366;2023-07-02T07:56:41;29.60;34.20
67196;DHT22;54122;53.538;49.366;2023-07-02T07:59:08;28.90;36.40
67196;DHT22;54122;53.538;49.366;2023-07-02T08:01:34;30.20;34.70
67196;DHT22;54122;53.538;49.366;2023-07-02T08:04:00;31.60;32.10
67196;DHT22;54122;53.538;49.366;2023-07-02T08:06:27;32.90;30.10
67196;DHT22;54122;53.538;49.366;2023-07-02T08:08:53;34.00;28.10
67196;DHT22;54122;53.538;49.366;2023-07-02T08:11:19;34.90;27.20
67196;DHT22;54122;53.538;49.366;2023-07-02T08:13:45;35.10;26.00
67196;DHT22;54122;53.538;49.366;2023-07-02T08:16:11;35.30;25.80
67196;DHT22;54122;53.538;49.366;2023-07-02T08:18:39;35.30;25.60
67196;DHT22;54122;53.538;49.366;2023-07-02T08:21:05;35.40;25.50
67196;DHT22;54122;53.538;49.366;2023-07-02T08:23:33;35.00;25.40
67196;DHT22;54122;53.538;49.366;2023-07-02T08:25:59;34.70;25.80
67196;DHT22;54122;53.538;49.366;2023-07-02T08:28:25;33.70;26.00
67196;DHT22;54122;53.538;49.366;2023-07-02T08:30:51;32.70;27.50
67196;DHT22;54122;53.538;49.366;2023-07-02T08:33:17;32.50;27.60
67196;DHT22;54122;53.538;49.366;2023-07-02T08:35:43;32.30;28.00
67196;DHT22;54122;53.538;49.366;2023-07-02T08:38:10;32.30;28.00
67196;DHT22;54122;53.538;49.366;2023-07-02T08:40:36;32.40;27.80
67196;DHT22;54122;53.538;49.366;2023-07-02T08:43:02;32.40;27.30
67196;DHT22;54122;53.538;49.366;2023-07-02T08:45:29;32.30;27.30
67196;DHT22;54122;53.538;49.366;2023-07-02T08:47:55;32.10;27.90
67196;DHT22;54122;53.538;49.366;2023-07-02T08:50:24;31.40;28.60
67196;DHT22;54122;53.538;49.366;2023-07-02T08:52:50;30.70;30.00
67196;DHT22;54122;53.538;49.366;2023-07-02T08:55:19;30.40;30.90
67196;DHT22;54122;53.538;49.366;2023-07-02T08:57:56;30.40;31.80
67196;DHT22;54122;53.538;49.366;2023-07-02T09:00:28;30.60;31.30
67196;DHT22;54122;53.538;49.366;2023-07-02T09:02:57;30.30;31.40
67196;DHT22;54122;53.538;49.366;2023-07-02T09:05:23;30.00;31.80
67196;DHT22;54122;53.538;49.366;2023-07-02T09:07:50;29.70;32.80
67196;DHT22;54122;53.538;49.366;2023-07-02T09:10:31;29.50;33.20
67196;DHT22;54122;53.538;49.366;2023-07-02T09:13:07;29.30;33.80
67196;DHT22;54122;53.538;49.366;2023-07-02T09:15:41;29.30;34.40
67196;DHT22;54122;53.538;49.366;2023-07-02T09:18:19;29.70;33.90
67196;DHT22;54122;53.538;49.366;2023-07-02T09:20:46;30.00;32.90
67196;DHT22;54122;53.538;49.366;2023-07-02T09:23:13;30.30;31.70
67196;DHT22;54122;53.538;49.366;2023-07-02T09:25:40;30.30;31.80
67196;DHT22;54122;53.538;49.366;2023-07-02T09:28:22;30.00;32.40
67196;DHT22;54122;53.538;49.366;2023-07-02T09:30:58;29.30;33.80
67196;DHT22;54122;53.538;49.366;2023-07-02T09:33:27;29.00;34.20
67196;DHT22;54122;53.538;49.366;2023-07-02T09:35:54;29.20;34.80
67196;DHT22;54122;53.538;49.366;2023-07-02T09:38:21;29.40;34.20
67196;DHT22;54122;53.538;49.366;2023-07-02T09:40:52;29.40;34.40
67196;DHT22;54122;53.538;49.366;2023-07-02T09:43:19;29.60;34.20
67196;DHT22;54122;53.538;49.366;2023-07-02T09:45:50;30.10;33.50
67196;DHT22;54122;53.538;49.366;2023-07-02T09:48:17;30.20;32.10
67196;DHT22;54122;53.538;49.366;2023-07-02T09:50:47;30.20;31.50
67196;DHT22;54122;53.538;49.366;2023-07-02T09:53:16;30.10;31.70
67196;DHT22;54122;53.538;49.366;2023-07-02T09:55:43;30.00;31.40
67196;DHT22;54122;53.538;49.366;2023-07-02T09:58:10;29.90;31.90
67196;DHT22;54122;53.538;49.366;2023-07-02T10:00:39;29.90;32.20
67196;DHT22;54122;53.538;49.366;2023-07-02T10:03:06;29.90;32.20
67196;DHT22;54122;53.538;49.366;2023-07-02T10:05:34;30.00;32.10
67196;DHT22;54122;53.538;49.366;2023-07-02T10:08:16;29.80;32.00
67196;DHT22;54122;53.538;49.366;2023-07-02T10:10:47;29.60;32.00
67196;DHT22;54122;53.538;49.366;2023-07-02T10:13:14;29.30;32.20
67196;DHT22;54122;53.538;49.366;2023-07-02T10:15:41;28.90;33.10
67196;DHT22;54122;53.538;49.366;2023-07-02T10:18:08;29.00;33.20
67196;DHT22;54122;53.538;49.366;2023-07-02T10:20:39;28.90;32.80
67196;DHT22;54122;53.538;49.366;2023-07-02T10:23:06;28.90;32.70
67196;DHT22;54122;53.538;49.366;2023-07-02T10:25:34;28.90;33.10
67196;DHT22;54122;53.538;49.366;2023-07-02T10:28:18;29.00;33.20
67196;DHT22;54122;53.538;49.366;2023-07-02T10:30:45;28.90;33.60
67196;DHT22;54122;53.538;49.366;2023-07-02T10:33:13;28.80;33.80
67196;DHT22;54122;53.538;49.366;2023-07-02T10:35:41;28.80;33.70
67196;DHT22;54122;53.538;49.366;2023-07-02T10:38:13;28.70;33.40
67196;DHT22;54122;53.538;49.366;2023-07-02T10:40:45;28.60;33.40
67196;DHT22;54122;53.538;49.366;2023-07-02T10:43:12;28.60;34.10
67196;DHT22;54122;53.538;49.366;2023-07-02T10:45:39;28.90;34.10
67196;DHT22;54122;53.538;49.366;2023-07-02T10:48:09;29.40;33.50
67196;DHT22;54122;53.538;49.366;2023-07-02T10:50:36;29.50;33.10
67196;DHT22;54122;53.538;49.366;2023-07-02T10:53:03;29.60;33.50
67196;DHT22;54122;53.538;49.366;2023-07-02T10:55:29;29.70;33.30
67196;DHT22;54122;53.538;49.366;2023-07-02T10:58:05;29.70;33.20
67196;DHT22;54122;53.538;49.366;2023-07-02T11:00:32;29.60;34.40
67196;DHT22;54122;53.538;49.366;2023-07-02T11:03:00;29.40;33.30
67196;DHT22;54122;53.538;49.366;2023-07-02T11:05:26;29.50;33.50
67196;DHT22;54122;53.538;49.366;2023-07-02T11:07:53;29.60;33.30
67196;DHT22;54122;53.538;49.366;2023-07-02T11:10:23;29.60;33.10
67196;DHT22;54122;53.538;49.366;2023-07-02T11:12:50;29.40;33.10
67196;DHT22;54122;53.538;49.366;2023-07-02T11:15:17;29.30;33.50
67196;DHT22;54122;53.538;49.366;2023-07-02T11:17:44;29.20;34.00
67196;DHT22;54122;53.538;49.366;2023-07-02T11:20:12;29.30;33.70
67196;DHT22;54122;53.538;49.366;2023-07-02T11:22:40;29.60;33.30
67196;DHT22;54122;53.538;49.366;2023-07-02T11:25:18;29.90;32.50
67196;DHT22;54122;53.538;49.366;2023-07-02T11:27:46;30.20;32.30
67196;DHT22;54122;53.538;49.366;2023-07-02T11:30:13;30.60;31.60
67196;DHT22;54122;53.538;49.366;2023-07-02T11:32:52;30.90;31.80
67196;DHT22;54122;53.538;49.366;2023-07-02T11:35:20;31.00;31.50
67196;DHT22;54122;53.538;49.366;2023-07-02T11:37:47;30.90;30.90
67196;DHT22;54122;53.538;49.366;2023-07-02T11:40:17;30.80;30.50
67196;DHT22;54122;53.538;49.366;2023-07-02T11:42:44;30.70;31.50
67196;DHT22;54122;53.538;49.366;2023-07-02T11:45:11;30.70;31.30
67196;DHT22;54122;53.538;49.366;2023-07-02T11:47:39;30.70;31.30
67196;DHT22;54122;53.538;49.366;2023-07-02T11:50:06;30.70;31.10
67196;DHT22;54122;53.538;49.366;2023-07-02T11:52:33;30.50;31.40
67196;DHT22;54122;53.538;49.366;2023-07-02T11:54:59;30.20;31.90
67196;DHT22;54122;53.538;49.366;2023-07-02T11:57:26;30.00;31.80
67196;DHT22;54122;53.538;49.366;2023-07-02T11:59:52;29.90;32.20
67196;DHT22;54122;53.538;49.366;2023-07-02T12:02:18;29.80;32.60
67196;DHT22;54122;53.538;49.366;2023-07-02T12:04:45;29.60;33.00
67196;DHT22;54122;53.538;49.366;2023-07-02T12:07:11;29.20;33.60
67196;DHT22;54122;53.538;49.366;2023-07-02T12:09:39;28.90;34.40
67196;DHT22;54122;53.538;49.366;2023-07-02T12:12:06;28.80;34.40
67196;DHT22;54122;53.538;49.366;2023-07-02T12:14:32;28.60;34.90
67196;DHT22;54122;53.538;49.366;2023-07-02T12:16:58;28.50;35.70
67196;DHT22;54122;53.538;49.366;2023-07-02T12:19:24;28.50;35.70
67196;DHT22;54122;53.538;49.366;2023-07-02T12:21:51;28.50;35.30
67196;DHT22;54122;53.538;49.366;2023-07-02T12:24:17;28.40;35.70
67196;DHT22;54122;53.538;49.366;2023-07-02T12:26:43;28.40;36.20
67196;DHT22;54122;53.538;49.366;2023-07-02T12:29:09;28.40;36.00
67196;DHT22;54122;53.538;49.366;2023-07-02T12:31:35;28.50;35.80
67196;DHT22;54122;53.538;49.366;2023-07-02T12:34:02;28.50;36.00
67196;DHT22;54122;53.538;49.366;2023-07-02T12:36:29;28.50;35.90
67196;DHT22;54122;53.538;49.366;2023-07-02T12:38:55;28.20;36.00
67196;DHT22;54122;53.538;49.366;2023-07-02T12:41:21;28.00;36.80
67196;DHT22;54122;53.538;49.366;2023-07-02T12:43:47;28.10;37.50
67196;DHT22;54122;53.538;49.366;2023-07-02T12:46:14;28.20;37.00
67196;DHT22;54122;53.538;49.366;2023-07-02T12:48:41;28.20;36.90
67196;DHT22;54122;53.538;49.366;2023-07-02T12:51:07;28.20;37.30
67196;DHT22;54122;53.538;49.366;2023-07-02T12:53:34;28.20;38.10
67196;DHT22;54122;53.538;49.366;2023-07-02T12:56:00;28.30;36.70
67196;DHT22;54122;53.538;49.366;2023-07-02T12:58:27;28.30;36.70
67196;DHT22;54122;53.538;49.366;2023-07-02T13:00:53;28.20;36.70
67196;DHT22;54122;53.538;49.366;2023-07-02T13:03:21;28.00;37.10
67196;DHT22;54122;53.538;49.366;2023-07-02T13:05:49;28.10;37.10
67196;DHT22;54122;53.538;49.366;2023-07-02T13:08:16;28.10;36.70
67196;DHT22;54122;53.538;49.366;2023-07-02T13:10:43;28.00;36.70
67196;DHT22;54122;53.538;49.366;2023-07-02T13:13:09;28.00;36.40
67196;DHT22;54122;53.538;49.366;2023-07-02T13:15:36;28.00;36.20
67196;DHT22;54122;53.538;49.366;2023-07-02T13:18:02;28.00;36.10
67196;DHT22;54122;53.538;49.366;2023-07-02T13:20:30;27.90;36.70
67196;DHT22;54122;53.538;49.366;2023-07-02T13:22:56;27.80;36.70
67196;DHT22;54122;53.538;49.366;2023-07-02T13:25:24;27.70;37.20
67196;DHT22;54122;53.538;49.366;2023-07-02T13:27:51;27.70;36.90
67196;DHT22;54122;53.538;49.366;2023-07-02T13:30:18;27.60;37.20
67196;DHT22;54122;53.538;49.366;2023-07-02T13:32:45;27.60;37.50
67196;DHT22;54122;53.538;49.366;2023-07-02T13:35:11;27.60;37.90
67196;DHT22;54122;53.538;49.366;2023-07-02T13:37:37;27.70;38.00
67196;DHT22;54122;53.538;49.366;2023-07-02T13:40:04;27.70;37.50
67196;DHT22;54122;53.538;49.366;2023-07-02T13:42:32;27.70;37.40
67196;DHT22;54122;53.538;49.366;2023-07-02T13:44:59;27.60;37.80
67196;DHT22;54122;53.538;49.366;2023-07-02T13:47:25;27.50;38.00
67196;DHT22;54122;53.538;49.366;2023-07-02T13:49:52;27.40;38.20
67196;DHT22;54122;53.538;49.366;2023-07-02T13:52:19;27.50;39.40
67196;DHT22;54122;53.538;49.366;2023-07-02T13:54:45;27.40;38.20
67196;DHT22;54122;53.538;49.366;2023-07-02T13:57:11;27.30;38.50
67196;DHT22;54122;53.538;49.366;2023-07-02T13:59:37;27.00;39.00
67196;DHT22;54122;53.538;49.366;2023-07-02T14:02:04;26.80;39.50
67196;DHT22;54122;53.538;49.366;2023-07-02T14:04:31;26.70;39.70
67196;DHT22;54122;53.538;49.366;2023-07-02T14:06:57;26.70;40.00
67196;DHT22;54122;53.538;49.366;2023-07-02T14:09:24;26.70;40.30
67196;DHT22;54122;53.538;49.366;2023-07-02T14:11:50;26.80;40.00
67196;DHT22;54122;53.538;49.366;2023-07-02T14:14:16;26.80;40.00
67196;DHT22;54122;53.538;49.366;2023-07-02T14:16:42;26.90;40.00
67196;DHT22;54122;53.538;49.366;2023-07-02T14:19:08;27.00;40.00
67196;DHT22;54122;53.538;49.366;2023-07-02T14:21:35;27.00;39.70
67196;DHT22;54122;53.538;49.366;2023-07-02T14:24:01;27.00;39.80
67196;DHT22;54122;53.538;49.366;2023-07-02T14:26:27;27.10;39.60
67196;DHT22;54122;53.538;49.366;2023-07-02T14:28:53;27.10;39.90
67196;DHT22;54122;53.538;49.366;2023-07-02T14:31:20;27.00;40.00
67196;DHT22;54122;53.538;49.366;2023-07-02T14:33:46;26.90;40.50
67196;DHT22;54122;53.538;49.366;2023-07-02T14:36:12;26.90;41.00
67196;DHT22;54122;53.538;49.366;2023-07-02T14:38:38;26.80;41.40
67196;DHT22;54122;53.538;49.366;2023-07-02T14:41:04;26.80;41.80
67196;DHT22;54122;53.538;49.366;2023-07-02T14:43:31;26.70;41.80
67196;DHT22;54122;53.538;49.366;2023-07-02T14:46:01;26.80;43.20
67196;DHT22;54122;53.538;49.366;2023-07-02T14:48:27;26.70;42.10
67196;DHT22;54122;53.538;49.366;2023-07-02T14:50:56;26.60;42.70
67196;DHT22;54122;53.538;49.366;2023-07-02T14:53:23;26.40;43.20
67196;DHT22;54122;53.538;49.366;2023-07-02T14:55:50;26.20;43.70
67196;DHT22;54122;53.538;49.366;2023-07-02T14:58:17;26.20;44.30
67196;DHT22;54122;53.538;49.366;2023-07-02T15:00:48;26.10;44.70
67196;DHT22;54122;53.538;49.366;2023-07-02T15:03:15;26.00;45.00
67196;DHT22;54122;53.538;49.366;2023-07-02T15:05:42;25.80;45.50
67196;DHT22;54122;53.538;49.366;2023-07-02T15:08:09;25.80;46.00
67196;DHT22;54122;53.538;49.366;2023-07-02T15:10:38;25.70;46.40
67196;DHT22;54122;53.538;49.366;2023-07-02T15:13:06;25.60;46.70
67196;DHT22;54122;53.538;49.366;2023-07-02T15:15:33;25.50;46.90
67196;DHT22;54122;53.538;49.366;2023-07-02T15:18:02;25.40;47.20
67196;DHT22;54122;53.538;49.366;2023-07-02T15:20:29;25.30;47.40